createdAt,value
2019-05-22T00:02:01.043Z,3.37
2019-05-22T00:04:31.968Z,3.33
2019-05-22T00:07:11.276Z,3.80
2019-05-22T00:09:54.687Z,3.20
2019-05-22T00:12:46.034Z,3.70
2019-05-22T00:15:10.473Z,3.97
2019-05-22T00:22:10.010Z,3.60
2019-05-22T00:25:26.496Z,4.37
2019-05-22T00:28:24.315Z,3.57
2019-05-22T00:31:02.687Z,2.87
2019-05-22T00:33:57.479Z,4.37
2019-05-22T00:36:45.911Z,2.97
2019-05-22T00:39:26.289Z,2.73
2019-05-22T00:42:11.025Z,3.43
2019-05-22T00:44:44.542Z,5.43
2019-05-22T00:47:23.254Z,4.57
2019-05-22T00:50:11.481Z,6.10
2019-05-22T00:53:01.707Z,4.23
2019-05-22T00:56:00.694Z,2.57
2019-05-22T00:58:53.129Z,3.87
2019-05-22T01:01:49.437Z,4.43
2019-05-22T01:04:38.933Z,3.03
2019-05-22T01:07:20.823Z,3.70
2019-05-22T01:09:58.308Z,3.20
2019-05-22T01:13:05.413Z,3.63
2019-05-22T01:15:47.654Z,3.83
2019-05-22T01:18:31.058Z,4.43
2019-05-22T01:24:12.502Z,4.73
2019-05-22T01:27:11.135Z,3.23
2019-05-22T01:29:53.971Z,4.27
2019-05-22T01:32:51.411Z,3.07
2019-05-22T01:40:14.824Z,3.13
2019-05-22T01:46:37.705Z,3.30
2019-05-22T01:49:31.955Z,4.97
2019-05-22T01:52:24.158Z,2.50
2019-05-22T01:54:57.867Z,3.20
2019-05-22T01:57:37.228Z,3.27
2019-05-22T02:00:32.124Z,4.33
2019-05-22T02:03:10.984Z,1.97
2019-05-22T02:06:08.855Z,2.60
2019-05-22T02:11:53.851Z,2.40
2019-05-22T02:14:32.961Z,4.40
2019-05-22T02:17:31.860Z,1.47
2019-05-22T02:20:17.689Z,2.57
2019-05-22T02:23:06.626Z,1.57
2019-05-22T02:25:58.040Z,2.43
2019-05-22T02:28:30.325Z,1.90
2019-05-22T05:22:05.346Z,2.07
2019-05-22T05:26:15.726Z,3.97
2019-05-22T05:29:33.053Z,3.07
2019-05-22T05:32:51.467Z,3.77
2019-05-22T05:35:12.376Z,3.43
2019-05-22T05:37:46.731Z,4.33
2019-05-22T05:40:33.693Z,3.43
2019-05-22T05:43:43.869Z,5.10
2019-05-22T05:46:43.128Z,3.07
2019-05-22T05:49:17.775Z,0.73
2019-05-22T05:51:46.095Z,1.13
2019-05-22T05:54:18.666Z,1.63
2019-05-22T05:56:49.292Z,2.83
2019-05-22T05:59:19.901Z,2.77
2019-05-22T06:01:58.029Z,2.30
2019-05-22T06:04:35.135Z,1.77
2019-05-22T06:07:22.823Z,0.53
2019-05-22T06:10:22.989Z,1.97
2019-05-22T06:12:52.999Z,2.10
2019-05-22T06:15:24.923Z,2.57
2019-05-22T06:18:31.213Z,2.03
2019-05-22T06:21:04.005Z,2.97
2019-05-22T06:24:22.887Z,2.03
2019-05-22T06:26:57.351Z,2.60
2019-05-22T06:29:29.862Z,2.10
2019-05-22T06:32:42.559Z,1.33
2019-05-22T06:35:11.663Z,4.10
2019-05-22T06:37:55.003Z,1.93
2019-05-22T06:40:23.353Z,2.90
2019-05-22T06:43:29.456Z,1.63
2019-05-22T06:45:57.390Z,2.73
2019-05-22T06:48:26.213Z,1.33
2019-05-22T06:50:54.090Z,0.97
2019-05-22T06:53:22.766Z,1.63
2019-05-22T06:55:50.933Z,0.90
2019-05-22T06:58:19.033Z,1.10
2019-05-22T07:00:47.486Z,2.27
2019-05-22T07:03:15.568Z,1.47
2019-05-22T07:05:45.304Z,1.30
2019-05-22T07:08:13.276Z,1.63
2019-05-22T07:10:42.689Z,1.17
2019-05-22T07:13:11.384Z,3.30
2019-05-22T07:15:48.080Z,1.77
2019-05-22T07:18:19.646Z,5.20
2019-05-22T07:20:49.766Z,0.90
2019-05-22T07:23:23.097Z,0.87
2019-05-22T07:25:51.879Z,1.20
2019-05-22T07:28:19.805Z,0.50
2019-05-22T07:30:48.342Z,1.07
2019-05-22T07:33:18.215Z,0.97
2019-05-22T07:36:07.563Z,1.53
2019-05-22T07:38:18.970Z,2.13
2019-05-22T07:40:50.595Z,1.53
2019-05-22T07:43:21.177Z,0.87
2019-05-22T07:45:50.987Z,0.60
2019-05-22T07:48:19.664Z,1.80
2019-05-22T07:50:49.488Z,2.87
2019-05-22T07:53:20.162Z,0.80
2019-05-22T07:56:01.410Z,2.57
2019-05-22T07:58:35.576Z,1.83
2019-05-22T08:01:11.740Z,4.77
2019-05-22T08:04:19.127Z,5.10
2019-05-22T08:06:53.622Z,2.93
2019-05-22T08:09:23.550Z,0.67
2019-05-22T08:11:53.036Z,1.87
2019-05-22T08:14:24.739Z,2.03
2019-05-22T08:16:56.733Z,0.87
2019-05-22T08:19:26.885Z,3.43
2019-05-22T08:22:06.720Z,1.00
2019-05-22T08:24:25.936Z,1.10
2019-05-22T08:27:00.145Z,0.67
2019-05-22T08:29:28.606Z,2.07
2019-05-22T08:31:58.536Z,1.27
2019-05-22T08:34:26.647Z,1.90
2019-05-22T08:36:55.408Z,1.83
2019-05-22T08:39:24.139Z,0.80
2019-05-22T08:41:55.327Z,1.13
2019-05-22T08:44:25.179Z,0.77
2019-05-22T08:46:53.182Z,1.40
2019-05-22T08:49:21.660Z,0.67
2019-05-22T08:51:49.903Z,2.87
2019-05-22T08:54:19.044Z,2.40
2019-05-22T08:56:53.022Z,1.33
2019-05-22T08:59:21.635Z,3.90
2019-05-22T09:01:52.921Z,3.73
2019-05-22T09:04:21.555Z,1.17
2019-05-22T09:06:51.618Z,0.83
2019-05-22T09:09:21.360Z,0.33
2019-05-22T09:11:51.117Z,0.40
2019-05-22T09:14:25.222Z,0.60
2019-05-22T09:16:56.336Z,0.93
2019-05-22T09:19:30.446Z,0.60
2019-05-22T09:22:01.628Z,0.30
2019-05-22T09:24:38.869Z,0.10
2019-05-22T09:27:12.099Z,0.37
2019-05-22T09:29:40.351Z,0.40
2019-05-22T09:32:10.562Z,0.77
2019-05-22T09:34:41.701Z,0.20
2019-05-22T09:37:10.043Z,0.30
2019-05-22T09:39:38.342Z,1.43
2019-05-22T09:42:06.815Z,0.10
2019-05-22T09:44:35.395Z,0.93
2019-05-22T09:47:08.009Z,2.00
2019-05-22T09:49:40.282Z,0.97
2019-05-22T09:52:11.916Z,0.27
2019-05-22T09:54:40.648Z,0.77
2019-05-22T09:57:15.037Z,0.60
2019-05-22T09:59:43.069Z,0.40
2019-05-22T10:02:13.946Z,0.30
2019-05-22T10:04:44.018Z,1.00
2019-05-22T10:07:11.985Z,0.57
2019-05-22T10:09:40.226Z,0.10
2019-05-22T10:12:13.668Z,0.23
2019-05-22T10:14:43.136Z,1.03
2019-05-22T10:17:11.415Z,0.10
2019-05-22T10:19:39.362Z,1.10
2019-05-22T10:22:07.964Z,1.47
2019-05-22T10:24:36.345Z,0.23
2019-05-22T10:27:04.927Z,0.20
2019-05-22T10:29:33.164Z,0.20
2019-05-22T10:32:00.898Z,0.20
2019-05-22T10:34:31.617Z,0.27
2019-05-22T10:36:59.405Z,0.40
2019-05-22T10:39:31.635Z,1.00
2019-05-22T10:41:59.175Z,0.87
2019-05-22T10:44:26.885Z,0.30
2019-05-22T10:46:55.791Z,0.20
2019-05-22T10:49:23.569Z,0.33
2019-05-22T10:51:51.507Z,1.80
2019-05-22T10:54:19.250Z,0.57
2019-05-22T10:56:46.907Z,0.40
2019-05-22T10:59:14.934Z,0.37
2019-05-22T11:01:42.909Z,0.67
2019-05-22T11:04:11.173Z,0.10
2019-05-22T11:06:39.537Z,0.27
2019-05-22T11:09:09.513Z,0.60
2019-05-22T11:11:38.519Z,0.67
2019-05-22T11:14:09.449Z,0.67
2019-05-22T11:16:37.056Z,0.37
2019-05-22T11:19:05.341Z,0.13
2019-05-22T11:21:32.987Z,0.30
2019-05-22T11:24:00.820Z,2.40
2019-05-22T11:26:28.603Z,0.87
2019-05-22T11:28:56.492Z,0.73
2019-05-22T11:31:24.627Z,1.90
2019-05-22T11:33:58.245Z,0.40
2019-05-22T11:36:26.104Z,1.50
2019-05-22T11:38:54.096Z,0.60
2019-05-22T11:41:23.052Z,0.20
2019-05-22T11:43:51.134Z,0.30
2019-05-22T11:46:19.187Z,1.03
2019-05-22T11:48:47.350Z,1.17
2019-05-22T11:51:15.046Z,0.60
2019-05-22T11:53:42.730Z,0.53
2019-05-22T11:56:10.670Z,0.33
2019-05-22T11:58:41.822Z,0.70
2019-05-22T12:01:09.567Z,0.13
2019-05-22T12:03:37.551Z,0.30
2019-05-22T12:06:07.128Z,0.50
2019-05-22T12:08:35.195Z,0.20
2019-05-22T12:11:03.375Z,0.20
2019-05-22T12:13:32.140Z,1.10
2019-05-22T12:16:03.667Z,0.20
2019-05-22T12:18:31.654Z,0.30
2019-05-22T12:21:01.656Z,0.70
2019-05-22T12:23:31.073Z,0.50
2019-05-22T12:26:02.151Z,0.37
2019-05-22T12:28:29.798Z,0.90
2019-05-22T12:30:58.276Z,0.40
2019-05-22T12:33:26.262Z,1.57
2019-05-22T12:35:54.179Z,0.70
2019-05-22T12:38:29.592Z,1.03
2019-05-22T12:40:57.568Z,0.30
2019-05-22T12:43:27.900Z,0.40
2019-05-22T12:45:55.621Z,1.20
2019-05-22T12:48:23.658Z,1.00
2019-05-22T12:50:54.488Z,0.70
2019-05-22T12:53:23.073Z,0.47
2019-05-22T12:55:50.755Z,1.10
2019-05-22T12:58:19.533Z,0.50
2019-05-22T13:00:47.246Z,0.70
2019-05-22T13:03:15.458Z,0.50
2019-05-22T13:05:43.320Z,0.70
2019-05-22T13:08:13.125Z,0.57
2019-05-22T13:10:40.938Z,0.43
2019-05-22T13:13:08.865Z,0.60
2019-05-22T13:15:38.635Z,2.07
2019-05-22T13:18:07.646Z,0.50
2019-05-22T13:20:42.416Z,1.13
2019-05-22T13:23:08.780Z,1.30
2019-05-22T13:25:39.081Z,0.40
2019-05-22T13:28:12.931Z,0.93
2019-05-22T13:30:42.042Z,2.43
2019-05-22T13:33:15.389Z,0.40
2019-05-22T13:35:43.895Z,1.17
2019-05-22T13:38:12.254Z,0.80
2019-05-22T13:40:40.342Z,1.10
2019-05-22T13:43:09.643Z,0.60
2019-05-22T13:45:38.265Z,0.40
2019-05-22T13:48:06.649Z,2.93
2019-05-22T13:50:34.425Z,0.50
2019-05-22T13:53:04.118Z,1.07
2019-05-22T13:55:32.355Z,0.40
2019-05-22T13:58:00.595Z,0.60
2019-05-22T14:00:28.597Z,1.20
2019-05-22T14:02:56.539Z,1.37
2019-05-22T14:05:25.669Z,1.17
2019-05-22T14:07:53.391Z,1.17
2019-05-22T14:10:23.481Z,0.70
2019-05-22T14:12:51.520Z,0.90
2019-05-22T14:15:19.406Z,1.83
2019-05-22T14:17:47.151Z,0.87
2019-05-22T14:20:15.826Z,0.30
2019-05-22T14:22:43.565Z,1.50
2019-05-22T14:25:28.631Z,0.63
2019-05-22T14:27:56.429Z,2.17
2019-05-22T14:30:26.190Z,0.90
2019-05-22T14:32:54.415Z,0.70
2019-05-22T14:35:25.420Z,1.83
2019-05-22T14:37:53.534Z,1.10
2019-05-22T14:40:22.909Z,0.90
2019-05-22T14:42:50.715Z,0.87
2019-05-22T14:45:18.613Z,0.80
2019-05-22T14:48:20.847Z,2.30
2019-05-22T14:50:45.536Z,1.10
2019-05-22T14:53:18.710Z,0.67
2019-05-22T14:55:48.152Z,0.50
2019-05-22T14:58:26.987Z,1.87
2019-05-22T15:01:15.246Z,0.50
2019-05-22T15:03:46.192Z,0.53
2019-05-22T15:06:15.683Z,0.70
2019-05-22T15:08:47.630Z,1.77
2019-05-22T15:11:15.674Z,1.00
2019-05-22T15:13:43.754Z,0.90
2019-05-22T15:16:22.030Z,1.03
2019-05-22T15:18:49.912Z,0.87
2019-05-22T15:21:17.727Z,0.97
2019-05-22T15:23:46.267Z,0.70
2019-05-22T15:26:14.342Z,1.80
2019-05-22T15:28:42.261Z,1.00
2019-05-22T15:31:20.806Z,1.00
2019-05-22T15:35:23.144Z,0.87
2019-05-22T16:05:20.518Z,0.80
2019-05-22T16:07:51.662Z,0.70
2019-05-22T16:10:21.999Z,0.93
2019-05-22T16:12:53.959Z,0.60
2019-05-22T16:15:23.418Z,1.20
2019-05-22T16:18:10.392Z,0.60
2019-05-22T16:20:25.619Z,1.23
2019-05-22T16:22:55.319Z,0.63
2019-05-22T16:25:26.941Z,1.40
2019-05-22T16:28:20.508Z,0.97
2019-05-22T16:30:48.859Z,1.43
2019-05-22T16:33:18.036Z,1.27
2019-05-22T16:35:48.804Z,0.60
2019-05-22T16:38:17.792Z,0.50
2019-05-22T16:40:46.266Z,0.50
2019-05-22T16:43:14.200Z,0.73
2019-05-22T16:45:50.209Z,0.93
2019-05-22T16:48:28.515Z,0.60
2019-05-22T16:50:48.053Z,0.70
2019-05-22T16:53:21.382Z,0.50
2019-05-22T16:55:49.077Z,0.70
2019-05-22T16:58:28.338Z,0.93
2019-05-22T17:02:11.095Z,0.80
2019-05-22T17:03:58.021Z,0.83
2019-05-22T17:06:28.203Z,0.77
2019-05-22T17:08:57.279Z,1.00
2019-05-22T17:11:25.777Z,1.70
2019-05-22T17:13:55.191Z,1.00
2019-05-22T17:16:23.677Z,1.20
2019-05-22T17:18:51.849Z,0.77
2019-05-22T17:21:20.572Z,0.87
2019-05-22T17:23:50.089Z,1.10
2019-05-22T17:26:18.238Z,0.80
2019-05-22T17:28:50.030Z,2.30
2019-05-22T17:31:23.641Z,0.90
2019-05-22T17:33:54.291Z,1.00
2019-05-22T17:36:23.457Z,0.90
2019-05-22T17:38:52.332Z,0.90
2019-05-22T17:41:23.130Z,2.20
2019-05-22T17:43:52.205Z,1.53
2019-05-22T17:46:20.349Z,1.07
2019-05-22T17:48:49.992Z,0.93
2019-05-22T17:51:19.295Z,3.70
2019-05-22T17:53:47.129Z,0.70
2019-05-22T17:56:15.133Z,0.80
2019-05-22T17:58:43.652Z,1.10
2019-05-22T18:01:11.840Z,0.70
2019-05-22T18:03:39.862Z,1.23
2019-05-22T18:06:10.806Z,1.97
2019-05-22T18:08:38.693Z,1.93
2019-05-22T18:11:07.731Z,1.00
2019-05-22T18:13:44.113Z,1.77
2019-05-22T18:16:12.357Z,2.30
2019-05-22T18:18:40.190Z,1.53
2019-05-22T18:21:10.550Z,1.73
2019-05-22T18:23:37.994Z,1.23
2019-05-22T18:26:06.552Z,1.67
2019-05-22T18:28:34.383Z,1.20
2019-05-22T18:31:02.009Z,1.97
2019-05-22T18:33:29.643Z,1.90
2019-05-22T18:35:57.201Z,1.90
2019-05-22T18:38:27.265Z,1.70
2019-05-22T18:47:28.071Z,1.80
2019-05-22T18:50:48.953Z,2.00
2019-05-22T18:53:17.660Z,2.03
2019-05-22T18:56:47.805Z,2.17
2019-05-22T18:59:15.799Z,2.73
2019-05-22T19:01:43.644Z,2.77
2019-05-22T19:04:19.139Z,3.03
2019-05-22T19:06:47.264Z,3.37
2019-05-22T19:09:15.588Z,2.90
2019-05-22T19:11:49.217Z,4.00
2019-05-22T19:14:45.286Z,2.50
2019-05-22T19:18:02.122Z,3.33
2019-05-22T19:20:29.936Z,2.30
2019-05-22T19:23:00.990Z,2.90
2019-05-22T19:25:27.573Z,2.47
2019-05-22T19:31:14.053Z,2.60
2019-05-22T19:33:42.105Z,2.10
2019-05-22T19:36:09.856Z,2.80
2019-05-22T19:38:39.724Z,3.47
2019-05-22T19:41:15.906Z,2.53
2019-05-22T19:43:51.973Z,3.27
2019-05-22T19:46:20.859Z,3.33
2019-05-22T19:48:56.066Z,3.00
2019-05-22T19:51:24.472Z,4.03
2019-05-22T19:55:09.006Z,3.27
2019-05-22T19:57:41.181Z,3.40
2019-05-22T20:00:21.753Z,3.83
2019-05-22T20:02:55.571Z,3.17
2019-05-22T20:05:29.056Z,4.20
2019-05-22T20:08:00.009Z,2.53
2019-05-22T20:10:32.034Z,3.40
2019-05-22T20:13:00.365Z,2.70
2019-05-22T20:15:28.573Z,3.80
2019-05-22T20:17:57.694Z,2.13
2019-05-22T20:20:30.547Z,2.80
2019-05-22T20:22:58.956Z,3.03
2019-05-22T20:25:28.214Z,2.17
2019-05-22T20:28:20.956Z,3.23
2019-05-22T20:30:59.471Z,2.40
2019-05-22T20:34:09.392Z,2.67
2019-05-22T20:36:28.158Z,2.50
2019-05-22T20:39:06.499Z,2.57
2019-05-22T20:41:34.937Z,3.07
2019-05-22T20:44:03.994Z,2.60
2019-05-22T20:46:32.082Z,1.93
2019-05-22T21:02:42.819Z,4.73
2019-05-22T21:45:58.379Z,3.57
2019-05-22T21:48:36.868Z,5.77
2019-05-22T21:51:26.321Z,7.73
2019-05-22T21:53:54.361Z,6.30
2019-05-22T21:56:23.376Z,4.03
2019-05-22T21:58:52.134Z,3.33
2019-05-22T22:01:31.717Z,3.27
2019-05-22T22:04:34.468Z,3.97
2019-05-22T22:07:05.346Z,4.70
2019-05-22T22:09:33.302Z,3.37
2019-05-22T22:12:01.736Z,3.23
2019-05-22T22:14:30.777Z,4.07
2019-05-22T22:17:00.233Z,3.80
2019-05-22T22:19:32.863Z,3.47
2019-05-22T22:22:01.340Z,2.93
2019-05-22T22:24:29.419Z,4.43
2019-05-22T22:26:57.881Z,5.07
2019-05-22T22:29:29.628Z,3.83
2019-05-22T22:31:58.485Z,3.87
2019-05-22T22:34:45.899Z,4.17
2019-05-22T22:37:14.021Z,5.10
2019-05-22T22:39:47.139Z,5.37
2019-05-22T22:42:20.740Z,3.90
2019-05-22T22:44:51.952Z,3.73
2019-05-22T22:47:25.494Z,4.83
2019-05-22T22:49:54.829Z,4.10
2019-05-22T22:52:27.195Z,4.57
2019-05-22T22:54:56.251Z,3.77
2019-05-22T22:57:24.596Z,3.67
2019-05-22T22:59:52.372Z,4.93
2019-05-22T23:02:25.222Z,7.00
2019-05-22T23:04:54.808Z,5.27
2019-05-22T23:07:26.351Z,5.40
2019-05-22T23:09:54.421Z,3.97
2019-05-22T23:12:22.232Z,3.40
2019-05-22T23:14:54.441Z,3.53
2019-05-22T23:17:22.315Z,3.50
2019-05-22T23:19:49.199Z,3.40
2019-05-22T23:22:28.342Z,4.87
2019-05-22T23:24:57.384Z,4.73
2019-05-22T23:27:26.768Z,3.83
2019-05-22T23:29:55.595Z,4.07
2019-05-22T23:32:23.486Z,3.60
2019-05-22T23:34:51.680Z,4.20
2019-05-22T23:37:21.867Z,3.90
2019-05-22T23:39:52.472Z,4.00
2019-05-22T23:42:28.113Z,4.47
2019-05-22T23:45:03.083Z,4.27
2019-05-22T23:47:32.224Z,4.90
2019-05-22T23:50:01.115Z,3.47
2019-05-22T23:52:29.385Z,4.33
2019-05-22T23:54:57.258Z,4.13
2019-05-22T23:57:27.649Z,5.23
